Time;durP1;ratioP1;P1;durP2;ratioP2;P2;SDS_P1;SDS_P2;PMS_P1;PMS_P2;Temp;Humidity;BMP_temperature;BMP_pressure;BME280_temperature;BME280_humidity;BME280_pressure;Samples;Min_cycle;Max_cycle;Signal;HPM_P1;HPM_P2
2023/10/26 00:03:11;;;;;;;2.30;1.85;;;16.20;78.00;;;;;;10281315;28;20035;-58
2023/10/26 00:08:12;;;;;;;1.92;1.50;;;16.20;78.00;;;;;;10281339;28;20420;-58
2023/10/26 00:13:13;;;;;;;2.85;1.55;;;16.20;78.00;;;;;;10281002;28;20382;-58
2023/10/26 00:18:15;;;;;;;2.50;1.40;;;16.20;77.90;;;;;;10281512;28;20023;-58
2023/10/26 00:23:15;;;;;;;3.03;1.92;;;16.20;77.90;;;;;;10281440;28;20038;-58
2023/10/26 00:28:16;;;;;;;3.50;1.92;;;16.20;77.90;;;;;;10281302;28;20043;-58
2023/10/26 00:33:17;;;;;;;3.22;1.65;;;16.20;77.90;;;;;;10280106;28;20050;-58
2023/10/26 00:38:17;;;;;;;3.50;1.38;;;16.20;77.80;;;;;;10280607;28;20110;-58
2023/10/26 00:43:26;;;;;;;4.25;1.63;;;16.20;77.80;;;;;;10280663;28;20035;-58
2023/10/26 00:48:28;;;;;;;2.10;1.60;;;16.20;77.90;;;;;;10280907;28;20208;-58
2023/10/26 00:53:28;;;;;;;3.88;2.10;;;16.20;77.90;;;;;;10280246;28;20035;-58
2023/10/26 00:58:30;;;;;;;3.13;2.38;;;16.20;77.90;;;;;;10365760;28;20458;-58
2023/10/26 01:03:32;;;;;;;2.70;1.60;;;16.10;77.80;;;;;;10287214;28;20031;-58
2023/10/26 01:08:32;;;;;;;5.03;2.38;;;16.20;77.80;;;;;;10370580;28;20070;-56
2023/10/26 01:13:33;;;;;;;3.05;1.65;;;16.20;77.80;;;;;;10285115;28;20034;-58
2023/10/26 01:18:34;;;;;;;2.55;2.08;;;16.10;77.70;;;;;;10370409;28;20038;-58
2023/10/26 01:23:35;;;;;;;2.78;1.65;;;16.10;77.70;;;;;;10286313;28;20030;-58
2023/10/26 01:28:35;;;;;;;2.17;1.50;;;16.10;77.80;;;;;;10286506;28;20019;-58
2023/10/26 01:33:36;;;;;;;2.85;1.80;;;16.10;77.60;;;;;;10285862;28;20051;-58
2023/10/26 01:38:37;;;;;;;3.15;1.80;;;16.10;77.70;;;;;;10285884;28;20092;-58
2023/10/26 01:43:38;;;;;;;3.33;1.65;;;16.10;77.70;;;;;;10285315;28;20486;-58
2023/10/26 01:48:39;;;;;;;3.53;1.73;;;16.10;77.70;;;;;;10285630;28;20382;-58
2023/10/26 01:53:40;;;;;;;2.97;1.60;;;16.10;77.60;;;;;;10285405;28;20027;-58
2023/10/26 01:58:41;;;;;;;2.20;1.75;;;16.10;77.90;;;;;;10368754;28;20462;-58
2023/10/26 02:03:42;;;;;;;3.35;2.08;;;16.10;78.10;;;;;;10285432;28;20037;-58
2023/10/26 02:08:42;;;;;;;2.95;2.00;;;16.10;78.20;;;;;;10285220;28;20031;-58
2023/10/26 02:13:43;;;;;;;2.45;1.95;;;16.10;78.30;;;;;;10284130;28;20038;-58
2023/10/26 02:18:47;;;;;;;2.85;1.88;;;16.10;78.40;;;;;;10285439;28;20034;-58
2023/10/26 02:23:47;;;;;;;2.45;1.90;;;16.10;78.40;;;;;;10365926;28;20042;-58
2023/10/26 02:28:48;;;;;;;3.40;2.45;;;16.10;78.40;;;;;;10284290;28;20038;-58
2023/10/26 02:33:49;;;;;;;3.13;2.08;;;16.10;78.40;;;;;;10283917;28;20118;-58
2023/10/26 02:38:49;;;;;;;2.88;1.90;;;16.10;78.40;;;;;;10284192;28;20551;-58
2023/10/26 02:43:50;;;;;;;2.42;1.88;;;16.10;78.30;;;;;;10283957;28;20045;-58
2023/10/26 02:48:51;;;;;;;3.20;1.70;;;16.10;78.30;;;;;;10284167;28;20039;-58
2023/10/26 02:53:51;;;;;;;3.25;1.85;;;16.10;78.30;;;;;;10283174;28;20416;-58
2023/10/26 02:58:52;;;;;;;2.17;1.63;;;16.10;78.30;;;;;;10283518;28;20397;-57
2023/10/26 03:03:53;;;;;;;3.15;2.22;;;16.00;78.20;;;;;;10283979;28;20413;-58
2023/10/26 03:08:54;;;;;;;2.67;1.80;;;16.00;78.20;;;;;;10282526;28;20037;-58
2023/10/26 03:13:54;;;;;;;3.10;1.92;;;16.10;78.30;;;;;;10281537;28;20034;-58
2023/10/26 03:18:55;;;;;;;2.65;1.85;;;16.10;78.30;;;;;;10283288;28;20564;-58
2023/10/26 03:23:55;;;;;;;2.25;1.60;;;16.00;78.30;;;;;;10282550;28;20496;-58
2023/10/26 03:28:56;;;;;;;3.45;1.90;;;16.10;78.30;;;;;;10281913;28;20379;-58
2023/10/26 03:33:57;;;;;;;3.00;1.88;;;16.10;78.20;;;;;;10282326;28;20553;-58
2023/10/26 03:38:58;;;;;;;2.25;1.48;;;16.20;77.60;;;;;;10360703;28;20035;-59
2023/10/26 03:43:59;;;;;;;3.75;1.83;;;16.50;76.60;;;;;;10260883;28;20027;-58
2023/10/26 03:48:59;;;;;;;6.20;1.90;;;16.90;75.70;;;;;;10259039;28;20031;-58
2023/10/26 03:54:00;;;;;;;2.60;1.40;;;17.30;74.90;;;;;;10257476;28;20498;-59
2023/10/26 03:59:01;;;;;;;2.58;1.80;;;17.70;74.30;;;;;;10258716;28;20027;-59
2023/10/26 04:04:02;;;;;;;2.05;1.75;;;17.80;73.60;;;;;;10259921;28;20035;-59
2023/10/26 04:09:03;;;;;;;3.25;1.58;;;18.00;73.10;;;;;;10241835;28;20088;-58
2023/10/26 04:14:04;;;;;;;2.03;1.58;;;18.00;73.10;;;;;;10241355;29;20085;-58
2023/10/26 04:19:05;;;;;;;3.10;1.20;;;18.00;73.10;;;;;;10237133;29;20023;-58
2023/10/26 04:24:06;;;;;;;2.83;1.63;;;17.90;73.50;;;;;;10238404;28;20039;-58
2023/10/26 04:29:07;;;;;;;3.05;1.70;;;17.80;73.90;;;;;;10244724;28;20047;-57
2023/10/26 04:34:08;;;;;;;2.05;1.60;;;17.60;74.10;;;;;;10280717;28;20031;-58
2023/10/26 04:39:09;;;;;;;1.83;1.30;;;17.60;74.50;;;;;;10326401;28;20036;-58
2023/10/26 04:44:11;;;;;;;1.90;1.52;;;17.40;74.80;;;;;;10246001;28;20051;-58
2023/10/26 04:49:12;;;;;;;2.38;1.48;;;17.40;75.20;;;;;;10244861;28;20043;-58
2023/10/26 04:54:13;;;;;;;1.77;1.40;;;17.20;75.50;;;;;;10244536;28;20035;-58
2023/10/26 04:59:13;;;;;;;3.38;1.98;;;17.20;75.90;;;;;;10244115;28;20031;-58
2023/10/26 05:04:14;;;;;;;2.15;1.40;;;17.10;76.10;;;;;;10244344;29;20034;-58
2023/10/26 05:09:15;;;;;;;8.02;2.75;;;16.90;76.30;;;;;;10243612;28;20042;-56
2023/10/26 05:14:16;;;;;;;4.78;1.67;;;16.90;77.20;;;;;;10244421;28;20023;-55
2023/10/26 05:19:16;;;;;;;5.05;2.15;;;17.10;76.80;;;;;;10244002;28;20030;-55
2023/10/26 05:24:17;;;;;;;4.82;1.80;;;17.20;76.50;;;;;;10243963;28;20089;-55
2023/10/26 05:29:18;;;;;;;5.82;2.30;;;17.20;76.60;;;;;;10266125;28;20121;-57
2023/10/26 05:34:18;;;;;;;3.85;2.10;;;17.10;76.70;;;;;;10283295;28;20026;-55
2023/10/26 05:39:19;;;;;;;7.57;2.30;;;17.10;76.90;;;;;;10283077;28;20031;-56
2023/10/26 05:44:20;;;;;;;10.57;2.28;;;17.00;77.50;;;;;;10282279;28;20033;-54
2023/10/26 05:49:20;;;;;;;11.05;2.40;;;16.90;77.40;;;;;;10282659;28;20030;-56
2023/10/26 05:54:21;;;;;;;10.23;2.70;;;17.00;77.80;;;;;;10282688;28;20087;-54
2023/10/26 05:59:22;;;;;;;10.82;2.20;;;17.00;77.00;;;;;;10282629;28;20031;-57
2023/10/26 06:04:23;;;;;;;10.18;2.80;;;17.10;76.80;;;;;;10283315;28;20398;-56
2023/10/26 06:09:24;;;;;;;10.35;3.30;;;17.10;76.90;;;;;;10280496;28;20047;-55
2023/10/26 06:14:24;;;;;;;9.18;3.40;;;16.90;77.10;;;;;;10363109;28;20063;-55
2023/10/26 06:19:25;;;;;;;7.05;3.10;;;16.90;77.00;;;;;;10406372;28;20480;-56
2023/10/26 06:24:27;;;;;;;9.40;3.13;;;16.80;77.00;;;;;;10411531;28;20030;-58
2023/10/26 06:29:27;;;;;;;8.70;2.90;;;16.80;77.10;;;;;;10368587;28;20402;-57
2023/10/26 06:34:29;;;;;;;6.70;2.08;;;16.70;76.90;;;;;;10284170;28;20168;-56
2023/10/26 06:39:30;;;;;;;6.82;2.42;;;16.70;77.00;;;;;;10283031;28;20046;-57
2023/10/26 06:44:30;;;;;;;6.63;2.53;;;16.70;77.00;;;;;;10283202;28;20055;-56
2023/10/26 06:49:31;;;;;;;7.00;2.85;;;16.70;77.00;;;;;;10282469;28;20041;-56
2023/10/26 06:54:32;;;;;;;7.20;2.90;;;16.60;77.00;;;;;;10282890;28;20039;-56
2023/10/26 06:59:32;;;;;;;3.85;2.35;;;16.60;77.10;;;;;;10281919;28;20038;-57
2023/10/26 07:04:35;;;;;;;3.03;2.15;;;16.60;77.10;;;;;;10282621;28;20065;-57
2023/10/26 07:09:37;;;;;;;5.75;2.78;;;16.60;77.10;;;;;;10282091;28;20035;-57
2023/10/26 07:14:39;;;;;;;6.03;2.55;;;16.50;77.10;;;;;;10282107;28;20046;-56
2023/10/26 07:19:40;;;;;;;6.72;2.53;;;16.50;77.10;;;;;;10281590;28;20031;-57
2023/10/26 07:24:41;;;;;;;5.47;2.60;;;16.50;77.20;;;;;;10281686;28;20035;-57
2023/10/26 07:29:41;;;;;;;10.63;2.33;;;16.50;77.20;;;;;;10281543;28;20539;-57
2023/10/26 07:34:42;;;;;;;4.47;2.30;;;16.50;77.30;;;;;;10281306;28;20134;-56
2023/10/26 07:39:43;;;;;;;4.80;2.13;;;16.40;77.30;;;;;;10280996;28;20022;-57
2023/10/26 07:44:45;;;;;;;4.03;2.00;;;16.40;77.30;;;;;;10364010;28;20047;-56
2023/10/26 07:49:45;;;;;;;5.32;2.50;;;16.40;77.40;;;;;;10280927;28;20026;-57
2023/10/26 07:54:46;;;;;;;6.10;2.35;;;16.40;77.40;;;;;;10281536;28;20039;-57
2023/10/26 07:59:47;;;;;;;6.32;2.22;;;16.40;77.40;;;;;;10280609;28;20038;-57
2023/10/26 08:04:49;;;;;;;4.20;2.50;;;16.40;77.50;;;;;;10281283;28;20732;-56
2023/10/26 08:09:50;;;;;;;2.90;2.05;;;16.30;77.60;;;;;;10277737;28;20453;-57
2023/10/26 08:14:51;;;;;;;4.55;2.03;;;16.30;77.60;;;;;;10277845;28;20035;-57
2023/10/26 08:19:55;;;;;;;4.55;2.50;;;16.30;77.50;;;;;;10277522;28;20031;-57
2023/10/26 08:24:56;;;;;;;3.28;1.92;;;16.30;77.60;;;;;;10343892;28;20066;-57
2023/10/26 08:29:57;;;;;;;4.95;2.67;;;16.20;77.50;;;;;;10277097;28;20061;-57
2023/10/26 08:34:58;;;;;;;4.43;2.55;;;16.30;77.60;;;;;;10360024;28;20116;-57
2023/10/26 08:39:58;;;;;;;5.18;2.42;;;16.20;77.40;;;;;;10277345;28;20088;-57
2023/10/26 08:45:00;;;;;;;3.42;1.73;;;16.30;77.60;;;;;;10361405;28;20031;-57
2023/10/26 08:50:03;;;;;;;2.85;1.80;;;16.20;77.50;;;;;;10276742;28;20023;-57
2023/10/26 08:55:05;;;;;;;3.92;2.25;;;16.30;77.60;;;;;;10277990;28;20042;-57
2023/10/26 09:00:06;;;;;;;6.72;2.67;;;16.20;78.10;;;;;;10276623;28;20027;-57
2023/10/26 09:05:08;;;;;;;5.00;2.50;;;16.20;77.50;;;;;;10275191;28;20069;-57
2023/10/26 09:10:09;;;;;;;6.95;2.60;;;16.20;77.50;;;;;;10358568;28;20035;-57
2023/10/26 09:15:11;;;;;;;3.58;1.98;;;16.20;77.50;;;;;;10276226;28;20066;-57
2023/10/26 09:20:17;;;;;;;6.38;2.35;;;16.20;77.50;;;;;;10278727;28;20058;-56
2023/10/26 09:25:18;;;;;;;3.28;2.05;;;16.20;77.50;;;;;;10284953;28;20102;-57
2023/10/26 09:30:26;;;;;;;2.97;1.85;;;16.20;77.50;;;;;;10365323;28;20051;-57
2023/10/26 09:35:29;;;;;;;4.55;2.30;;;16.20;77.40;;;;;;10282156;28;20118;-56
2023/10/26 09:40:30;;;;;;;3.33;1.65;;;16.20;77.40;;;;;;10282782;28;20092;-57
2023/10/26 09:45:31;;;;;;;3.17;2.00;;;16.20;77.50;;;;;;10282546;28;20031;-57
2023/10/26 09:50:40;;;;;;;3.08;1.95;;;16.20;77.40;;;;;;10281402;28;20427;-56
2023/10/26 09:55:47;;;;;;;3.45;2.08;;;16.20;77.40;;;;;;10363236;28;20034;-56
2023/10/26 10:00:47;;;;;;;2.72;1.50;;;16.20;77.50;;;;;;10281683;28;20493;-57
2023/10/26 10:05:49;;;;;;;4.85;3.03;;;16.20;77.50;;;;;;10281282;28;20045;-57
2023/10/26 10:11:16;;;;;;;3.80;2.38;;;16.20;77.50;;;;;;10281105;28;20026;-57
2023/10/26 10:16:35;;;;;;;2.97;1.70;;;16.20;77.50;;;;;;10281655;28;20133;-57
2023/10/26 10:21:35;;;;;;;3.73;2.00;;;16.20;77.50;;;;;;10280886;28;20069;-57
2023/10/26 10:27:11;;;;;;;3.15;1.80;;;16.20;77.50;;;;;;10281245;28;20132;-57
2023/10/26 10:32:44;;;;;;;4.50;2.00;;;16.10;77.50;;;;;;10279592;28;20059;-57
2023/10/26 10:38:13;;;;;;;3.05;2.20;;;16.10;77.50;;;;;;10282344;28;20027;-57
2023/10/26 10:43:14;;;;;;;3.72;2.20;;;16.20;77.50;;;;;;10282707;28;20037;-57
2023/10/26 10:48:14;;;;;;;4.40;2.40;;;16.20;77.50;;;;;;10349385;28;20038;-56
2023/10/26 10:53:15;;;;;;;3.90;2.45;;;16.20;77.40;;;;;;10283003;28;20359;-57
2023/10/26 10:58:16;;;;;;;2.53;1.90;;;16.20;77.40;;;;;;10366136;28;20037;-57
2023/10/26 11:03:21;;;;;;;3.97;2.25;;;16.20;77.40;;;;;;10282211;28;20037;-57
2023/10/26 11:08:22;;;;;;;2.58;1.90;;;16.20;77.40;;;;;;10282573;28;20027;-57
2023/10/26 11:13:23;;;;;;;2.97;2.30;;;16.20;77.30;;;;;;10281103;28;20023;-57
2023/10/26 11:18:24;;;;;;;4.57;2.40;;;16.10;77.30;;;;;;10282022;28;20027;-57
2023/10/26 11:23:25;;;;;;;2.53;2.13;;;16.20;77.30;;;;;;10281519;28;20517;-56
2023/10/26 11:28:34;;;;;;;3.83;1.88;;;16.10;77.30;;;;;;10282235;28;20031;-56
2023/10/26 11:33:42;;;;;;;4.32;2.20;;;16.20;77.50;;;;;;10311760;28;20375;-57
2023/10/26 11:38:50;;;;;;;2.40;1.83;;;16.10;77.40;;;;;;10202166;28;20043;-57
2023/10/26 11:43:51;;;;;;;4.45;2.78;;;16.10;77.30;;;;;;10201629;28;20031;-57
2023/10/26 11:48:52;;;;;;;3.67;2.22;;;16.10;77.30;;;;;;10201347;29;20186;-56
2023/10/26 11:53:53;;;;;;;3.30;2.20;;;16.10;77.30;;;;;;10201300;28;20047;-56
2023/10/26 11:58:54;;;;;;;3.35;2.50;;;16.10;77.30;;;;;;10201449;29;20032;-56
2023/10/26 12:03:55;;;;;;;2.53;1.80;;;16.10;77.40;;;;;;10214639;29;20093;-57
2023/10/26 12:08:55;;;;;;;3.55;2.20;;;16.20;77.50;;;;;;10201389;29;20027;-57
2023/10/26 12:13:56;;;;;;;3.25;2.05;;;16.10;77.40;;;;;;10215488;29;20051;-56
2023/10/26 12:18:57;;;;;;;2.83;1.92;;;16.10;77.40;;;;;;10215502;29;20030;-56
2023/10/26 12:23:57;;;;;;;3.22;2.05;;;16.10;77.40;;;;;;10200325;28;20062;-56
2023/10/26 12:28:58;;;;;;;4.13;2.58;;;16.10;77.40;;;;;;10211742;28;20038;-56
2023/10/26 12:33:59;;;;;;;2.95;1.95;;;16.10;77.50;;;;;;10279288;28;20553;-56
2023/10/26 12:39:02;;;;;;;4.10;2.55;;;16.10;77.40;;;;;;10279995;28;20026;-56
2023/10/26 12:44:03;;;;;;;3.17;2.15;;;16.10;77.50;;;;;;10279442;28;20031;-56
2023/10/26 12:49:04;;;;;;;3.28;2.28;;;16.10;77.40;;;;;;10279139;28;20035;-57
2023/10/26 12:54:07;;;;;;;3.78;2.40;;;16.10;77.40;;;;;;10280119;28;20374;-57
2023/10/26 12:59:08;;;;;;;3.08;1.85;;;16.10;77.30;;;;;;10286668;28;20118;-57
2023/10/26 13:04:08;;;;;;;2.97;2.25;;;16.10;77.30;;;;;;10254570;28;20110;-57
2023/10/26 13:09:09;;;;;;;3.75;2.85;;;16.10;77.30;;;;;;10245937;28;20042;-57
2023/10/26 13:14:10;;;;;;;3.45;2.25;;;16.10;77.30;;;;;;10245714;28;20031;-57
2023/10/26 13:19:10;;;;;;;3.03;2.22;;;16.10;77.30;;;;;;10245969;28;20027;-57
2023/10/26 13:24:11;;;;;;;3.28;2.30;;;16.10;77.30;;;;;;10244364;28;20039;-57
2023/10/26 13:29:12;;;;;;;3.10;2.13;;;16.00;77.30;;;;;;10245528;28;20047;-57
2023/10/26 13:34:13;;;;;;;2.95;2.15;;;16.00;77.30;;;;;;10247898;28;20038;-56
2023/10/26 13:39:14;;;;;;;3.70;2.50;;;16.00;77.30;;;;;;10255341;28;20019;-56
2023/10/26 13:44:14;;;;;;;2.85;2.17;;;16.00;77.20;;;;;;10244740;29;20031;-57
2023/10/26 13:49:15;;;;;;;3.03;2.10;;;16.00;77.20;;;;;;10244922;29;20397;-56
2023/10/26 13:54:16;;;;;;;3.55;2.25;;;16.00;77.20;;;;;;10244866;28;20445;-56
2023/10/26 13:59:16;;;;;;;5.55;2.80;;;16.00;77.20;;;;;;10243142;29;20054;-56
2023/10/26 14:04:17;;;;;;;3.60;2.28;;;16.00;77.20;;;;;;10243922;28;20031;-56
2023/10/26 14:09:18;;;;;;;3.75;2.65;;;16.00;77.20;;;;;;10241937;28;20023;-57
2023/10/26 14:14:19;;;;;;;3.53;2.47;;;16.00;77.20;;;;;;10244124;28;20027;-56
2023/10/26 14:19:20;;;;;;;3.75;2.20;;;16.00;77.20;;;;;;10243908;29;20047;-57
2023/10/26 14:24:20;;;;;;;3.05;2.00;;;16.00;77.20;;;;;;10243102;28;20039;-56
2023/10/26 14:29:21;;;;;;;3.45;2.00;;;16.10;77.00;;;;;;10242364;28;20557;-57
2023/10/26 14:34:22;;;;;;;2.47;2.10;;;16.40;75.80;;;;;;10281952;28;20026;-56
2023/10/26 14:39:22;;;;;;;2.78;2.20;;;16.90;74.50;;;;;;10280418;28;20035;-57
2023/10/26 14:44:23;;;;;;;3.50;2.25;;;17.20;73.60;;;;;;10263822;28;20029;-57
2023/10/26 14:49:24;;;;;;;4.10;2.10;;;17.60;72.20;;;;;;10250643;28;20053;-56
2023/10/26 14:54:24;;;;;;;3.95;2.20;;;17.90;71.30;;;;;;10241833;28;20114;-57
2023/10/26 14:59:25;;;;;;;2.85;2.00;;;17.80;71.70;;;;;;10243170;29;20389;-57
2023/10/26 15:04:26;;;;;;;3.97;2.95;;;17.90;71.20;;;;;;10242453;28;20042;-57
2023/10/26 15:09:31;;;;;;;2.40;1.88;;;18.00;71.10;;;;;;10241410;28;20031;-56
2023/10/26 15:14:32;;;;;;;3.03;1.77;;;17.90;71.60;;;;;;10241766;28;20510;-57
2023/10/26 15:19:34;;;;;;;2.65;2.30;;;17.70;72.00;;;;;;10240962;28;20038;-57
2023/10/26 15:24:35;;;;;;;2.70;2.10;;;17.70;72.40;;;;;;10283676;28;20808;-57
2023/10/26 15:29:37;;;;;;;6.25;3.67;;;17.60;72.60;;;;;;10437248;28;20058;-58
2023/10/26 15:34:38;;;;;;;13.18;3.08;;;17.50;73.20;;;;;;10257780;28;20165;-58
2023/10/26 15:39:47;;;;;;;9.40;3.80;;;17.50;73.00;;;;;;10239629;28;20102;-58
2023/10/26 15:44:51;;;;;;;18.35;5.32;;;17.60;73.30;;;;;;10243913;28;20031;-57
2023/10/26 15:49:52;;;;;;;25.52;5.40;;;17.50;74.00;;;;;;10252761;28;20040;-57
2023/10/26 15:54:52;;;;;;;13.45;3.92;;;17.40;74.80;;;;;;10238161;28;20047;-59
2023/10/26 15:59:53;;;;;;;13.95;5.25;;;17.20;74.60;;;;;;10241555;28;20036;-59
2023/10/26 16:04:54;;;;;;;15.80;4.70;;;17.50;73.70;;;;;;10239773;28;20049;-58
2023/10/26 16:09:58;;;;;;;19.88;7.05;;;17.40;73.70;;;;;;10240279;28;20037;-58
2023/10/26 16:14:59;;;;;;;18.27;7.00;;;17.60;75.60;;;;;;10239726;28;20042;-58
2023/10/26 16:19:59;;;;;;;13.60;6.80;;;17.70;78.00;;;;;;10238974;28;20024;-58
2023/10/26 16:25:00;;;;;;;17.02;5.57;;;17.80;78.80;;;;;;10237960;28;20057;-59
2023/10/26 16:30:01;;;;;;;25.10;7.97;;;17.80;76.50;;;;;;10246124;28;20047;-59
2023/10/26 16:35:03;;;;;;;16.77;5.95;;;17.80;76.50;;;;;;10260147;28;20106;-58
2023/10/26 16:40:05;;;;;;;14.93;5.18;;;17.80;76.90;;;;;;10251021;28;20044;-59
2023/10/26 16:45:06;;;;;;;21.23;6.85;;;17.60;76.70;;;;;;10357181;28;20032;-58
2023/10/26 16:50:07;;;;;;;11.02;5.00;;;17.40;77.10;;;;;;10255796;28;20122;-58
2023/10/26 16:55:08;;;;;;;14.40;7.18;;;17.30;77.10;;;;;;10312943;28;20023;-59
2023/10/26 17:00:11;;;;;;;19.95;5.55;;;17.30;77.40;;;;;;10294223;28;20147;-58
2023/10/26 17:05:12;;;;;;;25.67;6.93;;;17.20;77.60;;;;;;10269375;28;20430;-58
2023/10/26 17:10:13;;;;;;;13.25;6.15;;;17.10;77.60;;;;;;10305387;28;20396;-58
2023/10/26 17:15:14;;;;;;;18.67;5.30;;;17.00;77.70;;;;;;10267165;28;20023;-58
2023/10/26 17:20:15;;;;;;;17.20;5.22;;;17.00;77.90;;;;;;10256357;28;20030;-58
2023/10/26 17:25:16;;;;;;;12.98;6.25;;;16.90;77.80;;;;;;10258536;28;20114;-58
2023/10/26 17:30:17;;;;;;;11.98;5.43;;;16.90;77.90;;;;;;10265650;28;20082;-58
2023/10/26 17:35:18;;;;;;;12.75;5.25;;;16.80;77.90;;;;;;10277486;28;20450;-58
2023/10/26 17:40:21;;;;;;;12.75;4.97;;;16.80;77.90;;;;;;10266781;28;20115;-58
2023/10/26 17:45:21;;;;;;;11.05;4.15;;;16.80;77.90;;;;;;10259819;28;20027;-61
2023/10/26 17:50:22;;;;;;;13.40;5.22;;;16.80;77.70;;;;;;10264254;28;20131;-61
2023/10/26 17:55:23;;;;;;;11.00;5.28;;;16.80;77.20;;;;;;10249902;28;20030;-57
2023/10/26 18:00:24;;;;;;;8.93;4.32;;;16.90;77.50;;;;;;10248317;28;20046;-57
2023/10/26 18:05:25;;;;;;;11.80;5.97;;;16.90;78.00;;;;;;10249482;28;20043;-59
2023/10/26 18:10:25;;;;;;;11.63;5.38;;;17.00;77.60;;;;;;10250806;28;20049;-58
2023/10/26 18:15:26;;;;;;;10.10;3.85;;;17.10;76.50;;;;;;10264685;28;20049;-58
2023/10/26 18:20:27;;;;;;;7.72;4.10;;;17.20;76.20;;;;;;10295783;28;20021;-58
2023/10/26 18:25:27;;;;;;;7.55;4.32;;;17.10;76.20;;;;;;10336164;28;20398;-59
2023/10/26 18:30:28;;;;;;;9.27;5.28;;;17.10;76.20;;;;;;10264162;28;20050;-58
2023/10/26 18:35:29;;;;;;;8.63;4.47;;;17.10;76.30;;;;;;10270999;28;20035;-59
2023/10/26 18:40:37;;;;;;;8.93;5.10;;;17.10;76.50;;;;;;10266227;28;20031;-58
2023/10/26 18:45:38;;;;;;;7.53;4.32;;;17.00;76.70;;;;;;10275276;28;20027;-58
2023/10/26 18:50:39;;;;;;;8.68;4.43;;;17.00;76.80;;;;;;10274939;28;20031;-58
2023/10/26 18:55:41;;;;;;;9.43;4.55;;;16.90;76.90;;;;;;10242763;28;20036;-58
2023/10/26 19:00:44;;;;;;;7.70;4.45;;;16.90;76.90;;;;;;10253278;28;20456;-59
2023/10/26 19:05:47;;;;;;;8.82;4.40;;;17.00;76.60;;;;;;10241887;28;20521;-59
2023/10/26 19:10:48;;;;;;;9.48;4.38;;;17.00;76.50;;;;;;10241669;28;20039;-59
2023/10/26 19:15:49;;;;;;;8.27;4.32;;;17.00;76.50;;;;;;10251734;28;20019;-58
2023/10/26 19:20:49;;;;;;;7.10;3.92;;;16.90;76.60;;;;;;10240908;28;20038;-58
2023/10/26 19:25:50;;;;;;;9.70;4.40;;;16.90;76.70;;;;;;10257204;28;20038;-58
2023/10/26 19:30:54;;;;;;;6.50;3.70;;;16.80;76.90;;;;;;10247799;28;20051;-59
2023/10/26 19:35:55;;;;;;;7.78;4.70;;;16.80;77.00;;;;;;10252193;28;20038;-58
2023/10/26 19:40:57;;;;;;;7.80;5.13;;;16.80;77.10;;;;;;10241963;28;20039;-58
2023/10/26 19:45:57;;;;;;;6.45;4.65;;;16.70;77.10;;;;;;10242006;29;20038;-58
2023/10/26 19:50:59;;;;;;;7.13;3.95;;;16.70;77.20;;;;;;10240556;29;20043;-58
2023/10/26 19:55:59;;;;;;;4.95;3.92;;;16.70;77.30;;;;;;10240514;28;20124;-58
2023/10/26 20:01:00;;;;;;;6.00;4.85;;;16.70;77.40;;;;;;10241456;28;20080;-58
2023/10/26 20:06:06;;;;;;;6.30;4.32;;;16.60;77.40;;;;;;10223151;29;20394;-58
2023/10/26 20:11:09;;;;;;;7.38;4.65;;;16.60;77.40;;;;;;10234619;28;20169;-58
2023/10/26 20:16:09;;;;;;;7.35;4.60;;;16.60;77.50;;;;;;10241272;29;20023;-58
2023/10/26 20:21:10;;;;;;;6.65;5.20;;;16.50;77.50;;;;;;10241037;28;20081;-58
2023/10/26 20:26:11;;;;;;;6.78;4.53;;;16.50;77.50;;;;;;10241354;28;20039;-58
2023/10/26 20:31:12;;;;;;;8.85;4.85;;;16.50;77.60;;;;;;10251385;28;20051;-58
2023/10/26 20:36:14;;;;;;;6.38;4.93;;;16.50;77.60;;;;;;10240933;28;20027;-58
2023/10/26 20:41:16;;;;;;;7.50;5.10;;;16.50;77.70;;;;;;10240501;28;20042;-58
2023/10/26 20:46:17;;;;;;;6.38;4.93;;;16.50;77.70;;;;;;10240607;29;20024;-58
2023/10/26 20:51:18;;;;;;;6.68;5.10;;;16.40;77.60;;;;;;10240185;29;20035;-59
2023/10/26 20:56:19;;;;;;;7.05;4.47;;;16.40;77.60;;;;;;10240784;29;20031;-58
2023/10/26 21:01:20;;;;;;;7.40;4.53;;;16.40;78.30;;;;;;10240171;29;20117;-58
2023/10/26 21:06:20;;;;;;;17.77;5.93;;;16.40;77.80;;;;;;10238722;29;20028;-58
2023/10/26 21:11:22;;;;;;;8.05;4.90;;;16.40;77.80;;;;;;10240013;28;20039;-59
2023/10/26 21:16:25;;;;;;;6.40;4.15;;;16.40;77.70;;;;;;10243036;28;20019;-58
2023/10/26 21:21:25;;;;;;;7.10;5.53;;;16.30;77.70;;;;;;10246287;29;20031;-59
2023/10/26 21:26:26;;;;;;;6.53;4.47;;;16.30;77.70;;;;;;10246343;28;20035;-58
2023/10/26 21:31:28;;;;;;;6.68;4.38;;;16.30;77.80;;;;;;10256217;28;20497;-58
2023/10/26 21:36:29;;;;;;;6.72;4.75;;;16.30;77.80;;;;;;10313648;28;20078;-58
2023/10/26 21:41:31;;;;;;;7.47;5.03;;;16.30;77.80;;;;;;10245707;29;20031;-58
2023/10/26 21:46:32;;;;;;;6.65;4.15;;;16.30;77.90;;;;;;10245797;28;20429;-58
2023/10/26 21:51:32;;;;;;;7.40;4.82;;;16.30;77.90;;;;;;10245657;28;20031;-58
2023/10/26 21:56:33;;;;;;;6.70;4.50;;;16.20;77.90;;;;;;10245496;29;20092;-58
2023/10/26 22:01:34;;;;;;;7.28;5.20;;;16.30;77.80;;;;;;10243932;28;20031;-58
2023/10/26 22:06:38;;;;;;;6.47;4.93;;;16.30;77.80;;;;;;10245448;28;20027;-58
2023/10/26 22:11:39;;;;;;;7.78;5.43;;;16.20;77.80;;;;;;10215727;28;20085;-58
2023/10/26 22:16:40;;;;;;;5.95;4.78;;;16.20;77.90;;;;;;10244941;29;20031;-58
2023/10/26 22:21:40;;;;;;;8.57;4.93;;;16.20;77.80;;;;;;10244530;29;20027;-58
2023/10/26 22:26:41;;;;;;;7.40;5.15;;;16.20;77.80;;;;;;10243871;28;20035;-58
2023/10/26 22:31:43;;;;;;;6.32;5.32;;;16.20;77.80;;;;;;10254277;28;20055;-58
2023/10/26 22:36:44;;;;;;;8.50;5.60;;;16.20;77.90;;;;;;10243613;28;20039;-58
2023/10/26 22:41:46;;;;;;;5.40;4.07;;;16.20;77.90;;;;;;10244100;29;20363;-58
2023/10/26 22:46:47;;;;;;;6.55;4.78;;;16.20;77.90;;;;;;10243998;29;20076;-58
2023/10/26 22:51:48;;;;;;;7.68;4.47;;;16.20;77.90;;;;;;10243299;28;20038;-58
2023/10/26 22:56:48;;;;;;;6.22;4.25;;;16.10;77.90;;;;;;10242333;29;20027;-58
2023/10/26 23:01:50;;;;;;;8.05;4.55;;;16.10;77.90;;;;;;10243189;28;20034;-58
2023/10/26 23:06:51;;;;;;;6.85;4.93;;;16.10;77.90;;;;;;10242512;29;20169;-58
2023/10/26 23:11:52;;;;;;;6.13;4.70;;;16.10;78.00;;;;;;10243206;28;20430;-58
2023/10/26 23:16:52;;;;;;;7.75;4.40;;;16.10;77.90;;;;;;10242977;28;20127;-58
2023/10/26 23:21:53;;;;;;;5.65;4.63;;;16.10;77.90;;;;;;10241274;28;20378;-58
2023/10/26 23:26:55;;;;;;;5.88;4.05;;;16.10;77.90;;;;;;10241399;28;20031;-58
2023/10/26 23:31:55;;;;;;;6.05;4.32;;;16.10;77.90;;;;;;10253968;28;20193;-59
2023/10/26 23:36:56;;;;;;;6.97;4.82;;;16.10;77.90;;;;;;10309227;28;20092;-58
2023/10/26 23:41:57;;;;;;;6.25;4.55;;;16.10;77.90;;;;;;10241872;29;20027;-58
2023/10/26 23:46:58;;;;;;;6.38;4.30;;;16.10;77.90;;;;;;10242187;28;20035;-58
2023/10/26 23:51:59;;;;;;;5.32;4.43;;;16.10;78.00;;;;;;10241915;28;20050;-59
2023/10/26 23:57:00;;;;;;;6.00;5.35;;;16.10;77.90;;;;;;10240678;28;20367;-58
